createdAt,value
2019-03-13T00:04:27.133Z,47.40
2019-03-13T00:09:56.439Z,47.50
2019-03-13T00:15:26.923Z,47.60
2019-03-13T00:20:56.315Z,47.50
2019-03-13T00:26:25.715Z,47.60
2019-03-13T00:31:55.090Z,47.80
2019-03-13T00:37:24.538Z,48.10
2019-03-13T00:42:53.853Z,48.30
2019-03-13T00:48:23.182Z,48.20
2019-03-13T00:53:52.614Z,48.30
2019-03-13T00:59:21.919Z,48.40
2019-03-13T01:04:52.935Z,48.40
2019-03-13T01:10:22.370Z,48.30
2019-03-13T01:15:51.669Z,48.30
2019-03-13T01:21:21.125Z,48.20
2019-03-13T01:26:50.419Z,48.20
2019-03-13T01:32:33.369Z,48.20
2019-03-13T01:38:02.770Z,47.60
2019-03-13T01:43:32.174Z,45.80
2019-03-13T01:49:01.468Z,46.20
2019-03-13T01:54:30.973Z,48.40
2019-03-13T02:00:00.452Z,48.40
2019-03-13T02:05:29.866Z,48.00
2019-03-13T02:10:59.282Z,46.40
2019-03-13T02:16:30.680Z,46.00
2019-03-13T02:22:00.070Z,45.80
2019-03-13T02:27:29.409Z,46.10
2019-03-13T02:32:58.717Z,47.20
2019-03-13T02:38:28.038Z,47.50
2019-03-13T02:43:57.508Z,47.90
2019-03-13T02:49:26.887Z,48.30
2019-03-13T02:54:56.273Z,48.80
2019-03-13T03:00:27.739Z,49.90
2019-03-13T03:05:59.170Z,52.00
2019-03-13T03:11:28.464Z,52.70
2019-03-13T03:16:57.925Z,54.80
2019-03-13T03:22:27.248Z,56.00
2019-03-13T03:27:56.573Z,56.80
2019-03-13T03:33:27.149Z,57.90
2019-03-13T03:38:56.567Z,58.20
2019-03-13T03:44:25.877Z,58.00
2019-03-13T03:49:55.198Z,57.90
2019-03-13T03:55:25.624Z,57.50
2019-03-13T04:00:55.005Z,57.90
2019-03-13T04:06:24.329Z,57.80
2019-03-13T04:11:53.749Z,57.80
2019-03-13T04:17:23.122Z,57.60
2019-03-13T04:22:52.452Z,57.40
2019-03-13T04:28:21.825Z,57.40
2019-03-13T04:33:51.233Z,57.50
2019-03-13T04:39:20.584Z,57.70
2019-03-13T04:44:50.079Z,57.70
2019-03-13T04:50:19.445Z,58.30
2019-03-13T04:55:52.289Z,58.20
2019-03-13T05:01:20.088Z,58.40
2019-03-13T05:06:49.534Z,58.40
2019-03-13T05:12:19.182Z,58.70
2019-03-13T05:17:48.615Z,59.10
2019-03-13T05:23:18.023Z,59.50
2019-03-13T05:28:47.547Z,59.90
2019-03-13T05:34:17.129Z,59.90
2019-03-13T05:39:46.893Z,60.00
2019-03-13T05:45:16.574Z,61.00
2019-03-13T05:50:46.068Z,60.10
2019-03-13T05:56:15.381Z,60.30
2019-03-13T06:01:44.846Z,60.40
2019-03-13T06:07:14.291Z,60.60
2019-03-13T06:12:44.013Z,61.50
2019-03-13T06:18:13.597Z,63.40
2019-03-13T06:23:43.145Z,65.60
2019-03-13T06:29:12.775Z,66.60
2019-03-13T06:34:42.159Z,68.30
2019-03-13T06:40:22.076Z,68.70
2019-03-13T06:45:51.468Z,69.20
2019-03-13T06:51:20.896Z,69.70
2019-03-13T06:56:50.165Z,70.80
2019-03-13T07:02:21.116Z,71.10
2019-03-13T07:07:57.826Z,71.90
2019-03-13T07:13:44.854Z,72.60
2019-03-13T07:19:19.075Z,71.60
2019-03-13T07:25:08.558Z,71.80
2019-03-13T07:30:55.755Z,71.60
2019-03-13T07:36:29.665Z,71.50
2019-03-13T07:42:03.615Z,71.40
2019-03-13T07:47:34.577Z,71.30
2019-03-13T07:53:11.558Z,70.80
2019-03-13T07:58:57.505Z,70.40
2019-03-13T08:04:46.267Z,70.00
2019-03-13T08:10:35.663Z,69.60
2019-03-13T08:16:09.593Z,68.90
2019-03-13T08:21:58.776Z,68.20
2019-03-13T08:27:44.689Z,66.40
2019-03-13T08:33:18.516Z,65.80
2019-03-13T08:38:55.360Z,63.80
2019-03-13T08:44:29.341Z,63.30
2019-03-13T08:50:00.384Z,62.10
2019-03-13T08:55:40.715Z,61.80
2019-03-13T09:01:26.568Z,60.70
2019-03-13T09:07:13.595Z,59.90
2019-03-13T09:12:44.606Z,58.70
2019-03-13T09:18:21.404Z,57.60
2019-03-13T09:24:01.567Z,56.00
2019-03-13T09:29:35.817Z,55.40
2019-03-13T09:35:20.804Z,53.30
2019-03-13T09:40:54.643Z,53.00
2019-03-13T09:46:28.186Z,52.80
2019-03-13T09:52:02.070Z,51.50
2019-03-13T09:57:33.137Z,49.90
2019-03-13T10:03:04.617Z,49.90
2019-03-13T10:08:44.259Z,48.60
2019-03-13T10:14:33.818Z,48.40
2019-03-13T10:20:11.638Z,48.80
2019-03-13T10:25:45.571Z,48.50
2019-03-13T10:31:19.551Z,48.70
2019-03-13T10:36:56.545Z,48.90
2019-03-13T10:42:30.000Z,49.40
2019-03-13T10:48:03.771Z,49.70
2019-03-13T10:53:51.181Z,50.10
2019-03-13T10:59:28.182Z,50.30
2019-03-13T11:04:59.256Z,50.30
2019-03-13T11:10:35.733Z,50.40
2019-03-13T11:16:22.920Z,49.10
2019-03-13T11:22:10.508Z,48.80
2019-03-13T11:27:41.645Z,46.80
2019-03-13T11:33:21.885Z,45.30
2019-03-13T11:38:58.783Z,45.50
2019-03-13T11:44:32.446Z,50.20
2019-03-13T11:50:09.199Z,54.50
2019-03-13T11:55:46.039Z,56.50
2019-03-13T12:01:17.606Z,57.30
2019-03-13T12:06:57.678Z,56.90
2019-03-13T12:12:28.650Z,56.50
2019-03-13T12:18:05.244Z,54.40
2019-03-13T12:23:39.406Z,53.50
2019-03-13T12:29:10.688Z,52.60
2019-03-13T12:34:56.758Z,51.10
2019-03-13T12:46:28.368Z,50.10
2019-03-13T12:52:10.284Z,49.70
2019-03-13T12:57:50.304Z,50.60
2019-03-13T13:03:30.877Z,49.90
2019-03-13T13:09:07.839Z,50.80
2019-03-13T13:14:39.104Z,54.00
2019-03-13T13:20:13.214Z,49.90
2019-03-13T13:25:42.864Z,47.30
2019-03-13T13:31:12.735Z,46.00
2019-03-13T13:36:42.550Z,46.90
2019-03-13T13:42:12.263Z,46.90
2019-03-13T13:47:42.204Z,47.50
2019-03-13T13:53:12.330Z,48.80
2019-03-13T13:58:42.054Z,49.60
2019-03-13T14:04:11.889Z,49.60
2019-03-13T14:09:41.496Z,50.10
2019-03-13T14:15:16.517Z,49.10
2019-03-13T14:20:46.195Z,50.10
2019-03-13T14:26:15.631Z,52.00
2019-03-13T14:31:45.658Z,46.20
2019-03-13T14:37:15.599Z,45.20
2019-03-13T14:42:45.308Z,45.10
2019-03-13T14:48:15.258Z,47.70
2019-03-13T14:53:44.801Z,50.60
2019-03-13T14:59:14.403Z,51.10
2019-03-13T15:04:44.155Z,52.90
2019-03-13T15:10:19.162Z,55.30
2019-03-13T15:15:48.622Z,57.00
2019-03-13T15:21:18.199Z,57.60
2019-03-13T15:26:47.651Z,58.70
2019-03-13T15:32:17.279Z,59.80
2019-03-13T15:37:46.979Z,62.20
2019-03-13T15:43:16.516Z,61.80
2019-03-13T15:48:47.182Z,62.30
2019-03-13T15:54:17.026Z,60.60
2019-03-13T15:59:46.503Z,59.10
2019-03-13T16:05:16.031Z,56.90
2019-03-13T16:10:45.889Z,54.80
2019-03-13T16:16:15.492Z,54.00
2019-03-13T16:21:45.120Z,54.90
2019-03-13T16:27:14.710Z,54.90
2019-03-13T16:32:44.503Z,56.30
2019-03-13T16:38:14.156Z,56.90
2019-03-13T16:43:44.090Z,56.90
2019-03-13T16:49:13.654Z,57.20
2019-03-13T16:54:43.563Z,57.20
2019-03-13T17:00:22.847Z,56.80
2019-03-13T17:05:53.112Z,57.70
2019-03-13T17:11:23.390Z,58.90
2019-03-13T17:17:47.940Z,59.70
2019-03-13T17:23:18.353Z,60.10
2019-03-13T17:28:50.320Z,60.50
2019-03-13T17:34:19.664Z,60.60
2019-03-13T17:39:49.594Z,60.50
2019-03-13T17:45:21.955Z,60.20
2019-03-13T17:50:54.647Z,59.90
2019-03-13T17:56:24.282Z,59.60
2019-03-13T18:01:54.458Z,59.70
2019-03-13T18:07:24.021Z,59.80
2019-03-13T18:12:53.519Z,60.00
2019-03-13T18:18:22.960Z,60.30
2019-03-13T18:23:52.383Z,60.60
2019-03-13T18:30:14.789Z,60.70
2019-03-13T18:35:44.624Z,61.00
2019-03-13T18:41:18.947Z,61.30
2019-03-13T18:46:49.575Z,61.50
2019-03-13T18:52:19.197Z,61.80
2019-03-13T18:57:50.865Z,62.20
2019-03-13T19:09:06.754Z,62.30
2019-03-13T19:20:35.578Z,62.60
2019-03-13T19:26:04.791Z,62.50
2019-03-13T19:31:34.982Z,62.70
2019-03-13T19:37:04.242Z,62.60
2019-03-13T19:42:36.913Z,62.60
2019-03-13T19:48:07.417Z,62.40
2019-03-13T19:53:42.725Z,62.50
2019-03-13T19:59:13.504Z,62.50
2019-03-13T20:04:47.226Z,62.60
2019-03-13T20:10:26.402Z,62.40
2019-03-13T20:15:56.811Z,62.40
2019-03-13T20:21:32.387Z,62.30
2019-03-13T20:27:01.659Z,62.30
2019-03-13T20:32:32.886Z,62.20
2019-03-13T20:38:02.180Z,62.10
2019-03-13T20:43:31.569Z,61.90
2019-03-13T20:49:00.854Z,61.80
2019-03-13T20:54:36.072Z,61.70
2019-03-13T21:00:15.178Z,61.30
2019-03-13T21:05:47.356Z,61.10
2019-03-13T21:11:16.640Z,60.70
2019-03-13T21:16:46.008Z,60.60
2019-03-13T21:22:16.315Z,61.70
2019-03-13T21:27:47.722Z,62.50
2019-03-13T21:33:22.622Z,62.80
2019-03-13T21:38:53.896Z,63.80
2019-03-13T21:44:24.088Z,65.80
2019-03-13T21:49:59.337Z,67.30
2019-03-13T21:55:28.627Z,67.80
2019-03-13T22:00:57.898Z,68.00
2019-03-13T22:06:28.977Z,68.60
2019-03-13T22:11:58.247Z,68.60
2019-03-13T22:17:38.737Z,68.90
2019-03-13T22:23:08.209Z,69.10
2019-03-13T22:28:38.862Z,69.20
2019-03-13T22:34:08.318Z,69.30
2019-03-13T22:39:38.863Z,69.70
2019-03-13T22:45:12.198Z,69.90
2019-03-13T22:50:41.568Z,70.10
2019-03-13T22:56:10.927Z,70.50
2019-03-13T23:01:43.074Z,70.70
2019-03-13T23:07:13.923Z,70.70
2019-03-13T23:12:43.275Z,71.20
2019-03-13T23:18:14.173Z,71.30
2019-03-13T23:23:43.645Z,71.50
2019-03-13T23:29:13.009Z,71.40
2019-03-13T23:34:42.459Z,71.50
2019-03-13T23:40:11.932Z,71.60
2019-03-13T23:45:41.431Z,71.50
2019-03-13T23:51:10.793Z,71.60
2019-03-13T23:56:40.186Z,71.60
